Terminal Aerodrome Forecast
Issued by NWS Raleigh/Durham, NC

Home | Current Version | Previous Version | Text Only | Print | Product List | Glossary On
Versions: 1 2 3 4 5 6 7 8 9 10 11 12 13 14 15 16 17 18 19 20 21 22 23 24 25 26 27 28 29 30 31 32 33 34 35 36 37 38 39 40 41 42
000
FTUS42 KRAH 010537
TAFFAY
TAF
KFAY 010537Z 0106/0206 05006KT P6SM OVC025
      TEMPO 0107/0111 6SM -FZRA
     FM011100 04008KT 5SM -RA BR OVC012 WS017/16038KT
     FM011400 04008KT 4SM -RA BR OVC008 WS017/18038KT
     FM012200 33004KT 4SM -DZ BR BKN006 OVC014=

USA.gov is the U.S. government's official web portal to all federal, state and local government web resources and services.